createdAt,value
2023-04-15T00:02:21.449Z,4.72
2023-04-15T00:04:49.851Z,4.40
2023-04-15T00:07:19.210Z,4.57
2023-04-15T00:09:47.047Z,4.63
2023-04-15T00:12:14.883Z,4.30
2023-04-15T00:14:42.770Z,4.18
2023-04-15T00:17:10.589Z,4.28
2023-04-15T00:19:38.538Z,4.60
2023-04-15T00:22:06.351Z,4.15
2023-04-15T00:24:35.500Z,4.80
2023-04-15T00:27:03.607Z,4.68
2023-04-15T00:29:31.862Z,4.53
2023-04-15T00:31:59.638Z,4.18
2023-04-15T00:34:28.874Z,4.10
2023-04-15T00:36:56.757Z,4.35
2023-04-15T00:39:24.565Z,4.10
2023-04-15T00:41:54.358Z,4.00
2023-04-15T00:44:22.501Z,4.28
2023-04-15T00:46:52.986Z,4.00
2023-04-15T00:49:20.861Z,3.50
2023-04-15T00:51:49.039Z,4.00
2023-04-15T00:54:17.278Z,4.28
2023-04-15T00:56:45.191Z,3.85
2023-04-15T00:59:15.732Z,4.03
2023-04-15T01:01:45.274Z,4.03
2023-04-15T01:04:13.328Z,3.83
2023-04-15T01:06:41.599Z,4.03
2023-04-15T01:09:09.578Z,4.00
2023-04-15T01:11:39.885Z,4.20
2023-04-15T01:14:10.352Z,4.20
2023-04-15T01:16:41.124Z,4.53
2023-04-15T01:19:12.022Z,4.63
2023-04-15T01:21:40.963Z,3.92
2023-04-15T01:24:11.646Z,4.53
2023-04-15T01:26:43.502Z,4.53
2023-04-15T01:29:12.302Z,4.10
2023-04-15T01:31:40.586Z,4.40
2023-04-15T01:34:08.440Z,4.05
2023-04-15T01:36:36.774Z,4.35
2023-04-15T01:39:05.619Z,4.63
2023-04-15T01:41:33.536Z,4.10
2023-04-15T01:44:02.739Z,4.35
2023-04-15T01:46:30.709Z,3.92
2023-04-15T01:48:58.670Z,3.78
2023-04-15T01:51:27.257Z,4.03
2023-04-15T01:53:56.858Z,4.00
2023-04-15T01:56:25.363Z,4.43
2023-04-15T01:58:53.665Z,4.43
2023-04-15T02:01:23.338Z,4.00
2023-04-15T02:03:52.210Z,4.22
2023-04-15T02:06:20.089Z,3.83
2023-04-15T02:08:49.367Z,4.15
2023-04-15T02:11:17.444Z,4.25
2023-04-15T02:13:45.294Z,4.50
2023-04-15T02:16:20.658Z,4.25
2023-04-15T02:18:49.884Z,4.63
2023-04-15T02:21:18.919Z,4.30
2023-04-15T02:23:48.279Z,4.57
2023-04-15T02:26:16.221Z,4.65
2023-04-15T02:28:43.987Z,4.72
2023-04-15T02:31:14.886Z,4.28
2023-04-15T02:33:42.720Z,4.40
2023-04-15T02:36:12.399Z,4.55
2023-04-15T02:38:42.372Z,5.10
2023-04-15T02:41:10.542Z,4.75
2023-04-15T02:43:39.993Z,4.35
2023-04-15T02:46:12.832Z,4.30
2023-04-15T02:48:40.672Z,4.65
2023-04-15T02:51:15.804Z,4.70
2023-04-15T02:53:44.133Z,5.40
2023-04-15T02:56:12.537Z,4.45
2023-04-15T02:58:41.236Z,4.78
2023-04-15T03:01:09.488Z,4.60
2023-04-15T03:03:38.309Z,4.20
2023-04-15T03:06:06.564Z,4.63
2023-04-15T03:08:36.590Z,4.80
2023-04-15T03:11:04.968Z,4.50
2023-04-15T03:13:34.117Z,4.35
2023-04-15T03:16:09.654Z,4.28
2023-04-15T03:18:38.394Z,4.82
2023-04-15T03:21:06.721Z,4.60
2023-04-15T03:23:38.284Z,4.03
2023-04-15T03:26:06.832Z,4.90
2023-04-15T03:28:35.165Z,4.90
2023-04-15T03:31:03.488Z,5.00
2023-04-15T03:33:31.828Z,5.25
2023-04-15T03:35:59.677Z,4.90
2023-04-15T03:38:27.935Z,4.60
2023-04-15T03:40:57.048Z,4.70
2023-04-15T03:43:24.834Z,4.70
2023-04-15T03:45:52.629Z,4.72
2023-04-15T03:48:20.577Z,4.57
2023-04-15T03:50:48.386Z,4.70
2023-04-15T03:53:16.428Z,4.50
2023-04-15T03:55:44.766Z,4.53
2023-04-15T03:58:13.944Z,14.18
2023-04-15T04:00:42.498Z,9.73
2023-04-15T04:03:10.453Z,5.78
2023-04-15T04:05:39.043Z,4.72
2023-04-15T04:08:07.516Z,4.72
2023-04-15T04:10:35.339Z,4.97
2023-04-15T04:13:03.309Z,4.82
2023-04-15T04:15:32.497Z,4.72
2023-04-15T04:18:00.827Z,4.53
2023-04-15T04:20:28.696Z,4.80
2023-04-15T04:22:56.618Z,4.10
2023-04-15T04:25:24.505Z,6.05
2023-04-15T04:27:52.477Z,6.15
2023-04-15T04:30:20.397Z,5.40
2023-04-15T04:32:51.137Z,4.75
2023-04-15T04:35:18.958Z,4.60
2023-04-15T04:37:46.818Z,5.10
2023-04-15T04:40:14.892Z,5.18
2023-04-15T04:42:42.791Z,4.65
2023-04-15T04:45:11.220Z,4.57
2023-04-15T04:47:39.088Z,4.55
2023-04-15T04:50:10.275Z,4.82
2023-04-15T04:52:38.137Z,4.80
2023-04-15T04:55:08.520Z,5.63
2023-04-15T04:57:37.685Z,4.82
2023-04-15T05:00:07.152Z,5.50
2023-04-15T05:02:35.264Z,5.32
2023-04-15T05:05:03.237Z,5.75
2023-04-15T05:07:32.666Z,5.65
2023-04-15T05:10:01.013Z,5.90
2023-04-15T05:12:28.865Z,5.32
2023-04-15T05:14:56.701Z,5.70
2023-04-15T05:17:24.708Z,5.40
2023-04-15T05:19:53.793Z,5.80
2023-04-15T05:22:21.679Z,5.55
2023-04-15T05:24:50.868Z,5.40
2023-04-15T05:27:19.139Z,5.47
2023-04-15T05:29:47.010Z,5.80
2023-04-15T05:32:15.108Z,5.72
2023-04-15T05:34:42.944Z,6.07
2023-04-15T05:37:10.870Z,5.30
2023-04-15T05:39:38.718Z,5.63
2023-04-15T05:42:08.100Z,5.85
2023-04-15T05:44:36.119Z,4.50
2023-04-15T05:47:05.853Z,4.78
2023-04-15T05:49:33.894Z,4.60
2023-04-15T05:52:01.804Z,5.07
2023-04-15T05:54:29.574Z,4.82
2023-04-15T05:56:57.600Z,4.63
2023-04-15T05:59:27.131Z,4.57
2023-04-15T06:01:55.055Z,4.45
2023-04-15T06:04:23.076Z,4.03
2023-04-15T06:06:51.284Z,3.97
2023-04-15T06:09:19.065Z,4.07
2023-04-15T06:11:46.875Z,4.40
2023-04-15T06:14:14.709Z,3.60
2023-04-15T06:16:44.132Z,3.85
2023-04-15T06:19:12.395Z,3.65
2023-04-15T06:21:40.548Z,3.60
2023-04-15T06:24:08.601Z,3.78
2023-04-15T06:26:36.437Z,4.03
2023-04-15T06:29:04.337Z,4.25
2023-04-15T06:31:32.287Z,4.32
2023-04-15T06:34:01.593Z,4.40
2023-04-15T06:36:29.586Z,4.30
2023-04-15T06:38:57.631Z,4.18
2023-04-15T06:41:26.049Z,4.35
2023-04-15T06:43:53.953Z,4.05
2023-04-15T06:46:22.236Z,4.05
2023-04-15T06:48:50.467Z,4.00
2023-04-15T06:51:19.827Z,4.00
2023-04-15T06:53:47.603Z,4.15
2023-04-15T06:56:15.865Z,3.70
2023-04-15T06:58:43.767Z,3.83
2023-04-15T07:01:11.771Z,3.95
2023-04-15T07:03:39.738Z,4.15
2023-04-15T07:06:08.759Z,3.80
2023-04-15T07:08:38.149Z,3.88
2023-04-15T07:11:06.180Z,3.72
2023-04-15T07:13:34.163Z,3.80
2023-04-15T07:16:02.366Z,3.53
2023-04-15T07:18:30.499Z,3.25
2023-04-15T07:20:58.367Z,3.25
2023-04-15T07:23:26.266Z,4.10
2023-04-15T07:25:55.787Z,3.90
2023-04-15T07:28:23.677Z,3.78
2023-04-15T07:30:51.652Z,3.83
2023-04-15T07:33:19.622Z,3.55
2023-04-15T07:35:47.585Z,3.83
2023-04-15T07:38:15.641Z,4.35
2023-04-15T07:40:43.626Z,4.22
2023-04-15T07:43:13.645Z,3.90
2023-04-15T07:45:41.707Z,3.92
2023-04-15T07:48:09.595Z,4.07
2023-04-15T07:50:38.048Z,4.20
2023-04-15T07:53:07.222Z,4.20
2023-04-15T07:55:35.069Z,3.90
2023-04-15T07:58:02.957Z,3.67
2023-04-15T08:00:32.280Z,3.95
2023-04-15T08:03:00.389Z,3.88
2023-04-15T08:05:28.751Z,3.65
2023-04-15T08:07:57.294Z,3.90
2023-04-15T08:10:25.190Z,4.40
2023-04-15T08:12:54.328Z,3.80
2023-04-15T08:15:22.572Z,3.20
2023-04-15T08:17:51.796Z,2.78
2023-04-15T08:20:19.947Z,2.95
2023-04-15T08:22:51.818Z,2.80
2023-04-15T08:25:20.463Z,2.58
2023-04-15T08:27:48.432Z,2.50
2023-04-15T08:30:16.418Z,2.50
2023-04-15T08:32:47.539Z,2.50
2023-04-15T08:35:16.933Z,2.20
2023-04-15T08:37:44.815Z,2.08
2023-04-15T08:40:13.569Z,1.90
2023-04-15T08:42:50.170Z,1.60
2023-04-15T08:45:19.252Z,1.60
2023-04-15T08:47:49.348Z,1.63
2023-04-15T08:50:19.738Z,1.63
2023-04-15T08:52:47.927Z,1.55
2023-04-15T08:55:17.287Z,1.58
2023-04-15T08:57:45.351Z,1.40
2023-04-15T09:00:15.000Z,1.60
2023-04-15T09:02:44.061Z,1.50
2023-04-15T09:05:12.251Z,1.50
2023-04-15T09:07:41.942Z,1.42
2023-04-15T09:10:11.043Z,1.20
2023-04-15T09:12:38.907Z,1.50
2023-04-15T09:15:07.967Z,1.40
2023-04-15T09:17:36.026Z,1.30
2023-04-15T09:20:11.266Z,1.00
2023-04-15T09:25:27.535Z,1.10
2023-04-15T09:27:57.485Z,1.33
2023-04-15T09:30:25.915Z,1.30
2023-04-15T09:32:54.873Z,1.90
2023-04-15T09:35:24.043Z,1.27
2023-04-15T09:37:52.453Z,1.00
2023-04-15T09:40:34.620Z,2.90
2023-04-15T09:43:03.140Z,3.10
2023-04-15T09:45:31.045Z,1.30
2023-04-15T09:47:59.914Z,1.00
2023-04-15T09:50:29.987Z,1.42
2023-04-15T09:52:58.062Z,2.30
2023-04-15T09:55:26.291Z,1.60
2023-04-15T09:57:57.690Z,1.00
2023-04-15T10:00:28.680Z,1.30
2023-04-15T10:02:57.381Z,1.30
2023-04-15T10:05:29.836Z,1.95
2023-04-15T10:07:58.625Z,2.67
2023-04-15T10:10:26.668Z,2.90
2023-04-15T10:12:56.279Z,1.42
2023-04-15T10:15:25.526Z,1.40
2023-04-15T10:17:55.798Z,1.20
2023-04-15T10:20:24.421Z,1.52
2023-04-15T10:22:54.013Z,2.13
2023-04-15T10:25:23.469Z,3.95
2023-04-15T10:27:52.871Z,2.05
2023-04-15T10:30:23.212Z,2.65
2023-04-15T10:32:51.640Z,4.53
2023-04-15T10:35:21.661Z,1.90
2023-04-15T10:37:49.464Z,1.60
2023-04-15T10:40:27.287Z,1.38
2023-04-15T10:42:57.096Z,1.42
2023-04-15T10:45:28.695Z,1.50
2023-04-15T10:47:57.404Z,1.83
2023-04-15T10:50:28.157Z,2.15
2023-04-15T10:52:57.442Z,2.00
2023-04-15T10:55:27.417Z,1.90
2023-04-15T10:57:59.289Z,2.45
2023-04-15T11:00:31.040Z,2.85
2023-04-15T11:03:00.764Z,3.50
2023-04-15T11:05:53.130Z,4.90
2023-04-15T11:08:21.730Z,3.10
2023-04-15T11:10:54.693Z,2.40
2023-04-15T11:13:29.237Z,2.40
2023-04-15T11:16:03.325Z,2.60
2023-04-15T11:18:38.064Z,2.50
2023-04-15T11:21:07.818Z,2.28
2023-04-15T11:23:38.577Z,2.30
2023-04-15T11:26:09.545Z,2.40
2023-04-15T11:28:39.175Z,2.20
2023-04-15T11:31:11.261Z,2.50
2023-04-15T11:33:54.589Z,2.50
2023-04-15T11:36:22.505Z,2.33
2023-04-15T11:38:50.458Z,2.00
2023-04-15T11:41:22.109Z,1.85
2023-04-15T11:43:50.163Z,1.75
2023-04-15T11:46:19.752Z,2.45
2023-04-15T11:48:48.430Z,2.03
2023-04-15T11:51:16.408Z,2.08
2023-04-15T11:53:46.428Z,2.10
2023-04-15T11:56:19.561Z,2.00
2023-04-15T11:58:47.809Z,1.95
2023-04-15T12:01:15.579Z,2.10
2023-04-15T12:03:47.297Z,2.00
2023-04-15T12:06:19.092Z,2.10
2023-04-15T12:08:58.423Z,1.80
2023-04-15T12:11:41.408Z,1.90
2023-04-15T12:14:25.694Z,2.00
2023-04-15T12:16:58.368Z,1.98
2023-04-15T12:19:29.765Z,1.98
2023-04-15T12:22:01.124Z,1.90
2023-04-15T12:24:29.308Z,1.85
2023-04-15T12:27:02.719Z,1.98
2023-04-15T12:29:31.572Z,1.98
2023-04-15T12:32:01.332Z,2.05
2023-04-15T12:34:32.984Z,2.28
2023-04-15T12:37:03.345Z,2.35
2023-04-15T12:39:33.055Z,2.30
2023-04-15T12:42:01.491Z,2.50
2023-04-15T12:44:30.113Z,2.50
2023-04-15T12:46:58.640Z,2.53
2023-04-15T12:49:27.389Z,2.33
2023-04-15T12:52:00.681Z,4.70
2023-04-15T12:54:28.985Z,3.10
2023-04-15T12:56:57.639Z,4.20
2023-04-15T12:59:25.945Z,2.75
2023-04-15T13:01:54.725Z,3.13
2023-04-15T13:04:23.302Z,2.55
2023-04-15T13:06:51.340Z,3.05
2023-04-15T13:09:20.594Z,3.67
2023-04-15T13:11:48.448Z,2.92
2023-04-15T13:14:16.393Z,2.85
2023-04-15T13:16:44.182Z,2.70
2023-04-15T13:19:11.984Z,3.03
2023-04-15T13:21:39.890Z,4.20
2023-04-15T13:24:08.579Z,3.13
2023-04-15T13:26:38.029Z,3.00
2023-04-15T13:29:06.029Z,3.40
2023-04-15T13:31:33.845Z,3.20
2023-04-15T13:34:01.852Z,3.70
2023-04-15T13:36:29.777Z,3.80
2023-04-15T13:38:58.360Z,3.65
2023-04-15T13:41:26.319Z,4.18
2023-04-15T13:43:55.702Z,3.97
2023-04-15T13:46:23.530Z,3.97
2023-04-15T13:48:51.344Z,4.45
2023-04-15T13:51:19.129Z,4.32
2023-04-15T13:53:46.959Z,4.35
2023-04-15T13:56:14.822Z,4.60
2023-04-15T13:58:42.724Z,4.68
2023-04-15T14:01:11.993Z,4.90
2023-04-15T14:03:40.111Z,5.68
2023-04-15T14:06:08.329Z,5.47
2023-04-15T14:08:36.402Z,6.18
2023-04-15T14:11:04.641Z,5.70
2023-04-15T14:13:33.485Z,6.15
2023-04-15T14:16:01.481Z,5.32
2023-04-15T14:18:30.922Z,5.50
2023-04-15T14:20:58.691Z,5.90
2023-04-15T14:23:26.727Z,5.63
2023-04-15T14:25:54.619Z,6.03
2023-04-15T14:28:22.464Z,6.03
2023-04-15T14:30:50.373Z,5.85
2023-04-15T14:33:18.452Z,5.63
2023-04-15T14:35:48.278Z,5.97
2023-04-15T14:38:16.217Z,5.97
2023-04-15T14:40:44.715Z,6.25
2023-04-15T14:43:12.857Z,6.35
2023-04-15T14:45:43.629Z,5.97
2023-04-15T14:48:13.853Z,6.05
2023-04-15T14:50:42.179Z,5.82
2023-04-15T14:53:11.303Z,5.97
2023-04-15T14:55:39.137Z,5.28
2023-04-15T14:58:08.149Z,5.20
2023-04-15T15:00:39.208Z,4.70
2023-04-15T15:03:12.598Z,4.40
2023-04-15T15:05:41.154Z,4.80
2023-04-15T15:08:09.662Z,4.47
2023-04-15T15:10:48.085Z,4.72
2023-04-15T15:13:16.974Z,5.72
2023-04-15T15:15:44.901Z,4.85
2023-04-15T15:18:12.791Z,5.13
2023-04-15T15:20:40.836Z,5.15
2023-04-15T15:23:08.729Z,5.20
2023-04-15T15:25:38.040Z,5.32
2023-04-15T15:28:06.291Z,5.00
2023-04-15T15:30:34.151Z,4.97
2023-04-15T15:33:02.102Z,4.60
2023-04-15T15:35:30.178Z,4.53
2023-04-15T15:37:58.111Z,4.70
2023-04-15T15:40:26.140Z,4.55
2023-04-15T15:42:55.524Z,4.22
2023-04-15T15:45:23.390Z,6.47
2023-04-15T15:47:51.363Z,6.55
2023-04-15T15:50:19.331Z,6.15
2023-04-15T15:52:47.286Z,4.88
2023-04-15T15:55:15.340Z,4.50
2023-04-15T15:57:43.145Z,5.95
2023-04-15T16:00:13.882Z,4.43
2023-04-15T16:05:12.885Z,3.88
2023-04-15T16:07:40.749Z,3.70
2023-04-15T16:10:09.865Z,4.07
2023-04-15T16:12:37.712Z,4.55
2023-04-15T16:15:06.456Z,4.18
2023-04-15T16:17:36.286Z,3.90
2023-04-15T16:20:05.922Z,4.10
2023-04-15T16:22:34.277Z,3.65
2023-04-15T16:25:02.335Z,3.15
2023-04-15T16:27:30.367Z,3.28
2023-04-15T16:29:59.373Z,3.65
2023-04-15T16:32:27.517Z,3.90
2023-04-15T16:34:56.793Z,3.55
2023-04-15T16:37:24.627Z,3.53
2023-04-15T16:39:52.412Z,3.20
2023-04-15T16:42:20.364Z,3.42
2023-04-15T16:44:48.219Z,3.60
2023-04-15T16:47:16.440Z,3.83
2023-04-15T16:49:44.298Z,4.18
2023-04-15T16:52:13.523Z,3.38
2023-04-15T16:54:41.672Z,3.55
2023-04-15T16:57:09.765Z,4.07
2023-04-15T16:59:37.589Z,3.60
2023-04-15T17:02:05.513Z,3.90
2023-04-15T17:04:34.896Z,3.28
2023-04-15T17:07:02.880Z,3.65
2023-04-15T17:09:32.139Z,3.70
2023-04-15T17:11:59.966Z,4.00
2023-04-15T17:14:29.451Z,4.53
2023-04-15T17:16:57.487Z,4.95
2023-04-15T17:19:26.710Z,5.28
2023-04-15T17:21:55.159Z,5.18
2023-04-15T17:24:23.157Z,6.63
2023-04-15T17:26:52.396Z,5.72
2023-04-15T17:29:20.246Z,5.80
2023-04-15T17:31:48.306Z,5.85
2023-04-15T17:34:16.315Z,5.68
2023-04-15T17:36:44.232Z,5.88
2023-04-15T17:39:14.013Z,5.60
2023-04-15T17:41:41.976Z,5.45
2023-04-15T17:44:11.150Z,4.50
2023-04-15T17:46:39.035Z,4.70
2023-04-15T17:49:07.121Z,4.40
2023-04-15T17:51:35.154Z,4.63
2023-04-15T17:54:08.662Z,6.60
2023-04-15T17:56:36.580Z,6.25
2023-04-15T17:59:04.400Z,6.18
2023-04-15T18:01:33.630Z,6.20
2023-04-15T18:04:01.849Z,5.80
2023-04-15T18:06:29.955Z,6.43
2023-04-15T18:08:58.966Z,7.13
2023-04-15T18:11:27.346Z,6.78
2023-04-15T18:13:55.211Z,7.05
2023-04-15T18:16:23.307Z,7.18
2023-04-15T18:18:52.870Z,7.90
2023-04-15T18:21:20.913Z,8.77
2023-04-15T18:23:48.948Z,9.07
2023-04-15T18:26:16.810Z,8.60
2023-04-15T18:28:44.819Z,8.68
2023-04-15T18:31:12.677Z,8.02
2023-04-15T18:33:40.630Z,8.40
2023-04-15T18:36:11.063Z,8.57
2023-04-15T18:38:38.932Z,8.35
2023-04-15T18:41:08.807Z,8.13
2023-04-15T18:43:37.783Z,8.07
2023-04-15T18:46:10.206Z,8.02
2023-04-15T18:48:38.132Z,8.30
2023-04-15T18:51:05.969Z,8.50
2023-04-15T18:53:35.273Z,8.50
2023-04-15T18:56:03.437Z,8.02
2023-04-15T18:59:09.958Z,9.07
2023-04-15T19:01:19.323Z,8.32
2023-04-15T19:03:47.379Z,8.32
2023-04-15T19:06:15.375Z,9.00
2023-04-15T19:08:44.588Z,8.15
2023-04-15T19:11:12.578Z,8.95
2023-04-15T19:13:40.568Z,9.70
2023-04-15T19:16:08.458Z,10.68
2023-04-15T19:18:36.464Z,11.52
2023-04-15T19:21:04.492Z,12.38
2023-04-15T19:23:32.852Z,12.55
2023-04-15T19:26:02.276Z,13.57
2023-04-15T19:28:30.348Z,13.88
2023-04-15T19:30:58.968Z,12.20
2023-04-15T19:33:31.110Z,13.30
2023-04-15T19:35:59.336Z,11.23
2023-04-15T19:38:27.537Z,10.98
2023-04-15T19:40:55.506Z,10.15
2023-04-15T19:43:25.048Z,10.45
2023-04-15T19:45:54.638Z,11.82
2023-04-15T19:48:24.245Z,11.18
2023-04-15T19:50:52.127Z,11.10
2023-04-15T19:53:19.923Z,10.90
2023-04-15T19:55:48.493Z,10.68
2023-04-15T19:58:16.608Z,10.40
2023-04-15T20:00:46.525Z,10.40
2023-04-15T20:03:14.951Z,11.05
2023-04-15T20:05:43.390Z,10.88
2023-04-15T20:08:11.370Z,11.02
2023-04-15T20:10:39.406Z,11.25
2023-04-15T20:13:07.206Z,11.65
2023-04-15T20:15:35.143Z,12.52
2023-04-15T20:18:04.357Z,12.52
2023-04-15T20:20:32.293Z,13.10
2023-04-15T20:23:00.141Z,12.10
2023-04-15T20:25:28.165Z,12.55
2023-04-15T20:27:56.779Z,12.65
2023-04-15T20:30:24.609Z,12.18
2023-04-15T20:32:52.544Z,12.27
2023-04-15T20:35:21.783Z,10.75
2023-04-15T20:37:50.447Z,12.32
2023-04-15T20:40:19.405Z,12.77
2023-04-15T20:42:47.599Z,13.32
2023-04-15T20:45:15.506Z,13.23
2023-04-15T20:47:43.876Z,13.80
2023-04-15T20:50:12.762Z,14.07
2023-04-15T20:52:41.929Z,14.32
2023-04-15T20:55:10.456Z,15.07
2023-04-15T20:57:38.340Z,15.65
2023-04-15T21:00:09.378Z,15.07
2023-04-15T21:02:37.510Z,15.65
2023-04-15T21:05:06.091Z,14.43
2023-04-15T21:07:33.982Z,15.63
2023-04-15T21:10:03.292Z,16.25
2023-04-15T21:12:31.174Z,16.95
2023-04-15T21:14:59.009Z,14.55
2023-04-15T21:17:26.985Z,14.75
2023-04-15T21:19:54.899Z,15.35
2023-04-15T21:22:22.890Z,15.77
2023-04-15T21:24:50.910Z,17.15
2023-04-15T21:27:20.264Z,15.68
2023-04-15T21:29:48.222Z,16.33
2023-04-15T21:32:16.531Z,16.15
2023-04-15T21:34:44.443Z,17.30
2023-04-15T21:37:12.636Z,16.38
2023-04-15T21:39:40.778Z,16.15
2023-04-15T21:42:08.639Z,17.15
2023-04-15T21:44:38.012Z,14.90
2023-04-15T21:47:05.936Z,13.82
2023-04-15T21:49:33.985Z,15.75
2023-04-15T21:52:01.805Z,12.05
2023-04-15T21:54:31.062Z,15.52
2023-04-15T21:56:58.846Z,14.15
2023-04-15T21:59:27.248Z,15.40
2023-04-15T22:01:56.640Z,13.75
2023-04-15T22:04:24.916Z,14.13
2023-04-15T22:06:55.659Z,12.77
2023-04-15T22:09:23.619Z,14.77
2023-04-15T22:11:51.499Z,13.55
2023-04-15T22:14:19.303Z,15.68
2023-04-15T22:16:47.284Z,14.40
2023-04-15T22:19:16.626Z,14.15
2023-04-15T22:21:44.578Z,14.82
2023-04-15T22:24:32.593Z,16.40
2023-04-15T22:27:00.577Z,16.33
2023-04-15T22:29:28.468Z,17.20
2023-04-15T22:31:56.421Z,17.92
2023-04-15T22:34:25.773Z,17.17
2023-04-15T22:36:53.881Z,17.63
2023-04-15T22:39:21.910Z,17.73
2023-04-15T22:41:50.779Z,18.88
2023-04-15T22:44:18.666Z,19.15
2023-04-15T22:46:46.514Z,20.45
2023-04-15T22:49:14.377Z,20.63
2023-04-15T22:51:44.363Z,19.15
2023-04-15T22:54:12.769Z,21.23
2023-04-15T22:56:40.827Z,20.38
2023-04-15T22:59:08.874Z,20.85
2023-04-15T23:01:38.116Z,18.70
2023-04-15T23:04:09.431Z,19.27
2023-04-15T23:06:53.001Z,18.95
2023-04-15T23:09:21.641Z,19.77
2023-04-15T23:11:54.724Z,18.25
2023-04-15T23:14:22.562Z,18.67
2023-04-15T23:16:50.412Z,18.02
2023-04-15T23:19:18.204Z,18.00
2023-04-15T23:21:46.584Z,18.23
2023-04-15T23:24:15.917Z,16.77
2023-04-15T23:26:43.979Z,19.13
2023-04-15T23:29:12.015Z,20.60
2023-04-15T23:31:41.422Z,20.27
2023-04-15T23:34:09.480Z,20.40
2023-04-15T23:36:37.311Z,18.88
2023-04-15T23:39:05.193Z,20.00
2023-04-15T23:41:34.362Z,19.85
2023-04-15T23:44:02.204Z,19.20
2023-04-15T23:46:30.100Z,20.60
2023-04-15T23:48:58.127Z,20.40
2023-04-15T23:51:25.940Z,18.98
2023-04-15T23:53:53.801Z,18.92
2023-04-15T23:56:21.776Z,19.23
2023-04-15T23:58:50.995Z,16.42
